Le Center, Minnesota
Current Conditions -  °F | °C
As of 2:35 AM on Monday 24 Nov 2014 (Local Time) from KMKT Reporting Station
Overcast Overcast  
Wind Chill: 12°   Ceiling: 600
Heat Index: 27°   Visibility: 10mi
Dew Point: 21°   Wind: 22mph
Humidity: 80%   Direction: 310°NW
Pressure: 29.37"   Gusts: 28mph
Location:  44.39°N, 93.73°W
Report Text: KMKT 240835Z AUTO 31019G24KT 10SM OVC006 M03/M06 A2937 RMK AO1
Loading
Personal Weather Stations






























Interactive Weather Map New forecast layout! Learn more

10-Day Weather Forecast

Advertisements
Track Severe Weather on mobile